Weather observations for the past three days for
Rogers City, Presque Isle County Airport
Imperial (Metric)
Date Time (edt) Wind (mph) Vis. (mi.) Weather Sky Cond. Temperature (ºF) Relative Humidity Wind Chill (°F) Heat Index (°F) Pressure Precipitation (in)
Air Dwpt 6 hour altimeter (in) sea level (mb) 1 hr 3 hr 6 hr
Max. Min.
06 00:55 N 5 10.00 Overcast BKN035 OVC075 35.6 28.4 75% 32 29.85 0.0
06 00:35 N 6 10.00 Overcast OVC035 37.4 28.4 70% 33 29.85 0.0
06 00:15 N 6 10.00 Overcast OVC033 37.4 28.4 70% 33 29.84 0.0
05 23:55 N 9 10.00 Overcast OVC031 37.4 28.4 70% 31 29.83 0.0
05 23:35 NW 8 10.00 Overcast OVC029 37.4 28.4 70% 32 29.83 0.0
05 23:15 N 7 10.00 Overcast BKN029 OVC075 37.4 30.2 75% 33 29.83 0.0
05 22:55 N 6 10.00 Overcast OVC075 37.4 30.2 75% 33 29.82 0.0
05 22:35 N 7 10.00 Overcast OVC075 37.4 30.2 75% 33 29.81 0.0
05 22:15 N 5 10.00 Overcast OVC075 37.4 30.2 75% 34 29.81 0.0
05 21:55 N 12 10.00 Overcast OVC075 37.4 30.2 75% 30 29.8 0.0
05 21:35 NW 9 10.00 Overcast OVC075 37.4 30.2 75% 31 29.79 0.0
05 21:15 NW 10 10.00 Mostly Cloudy BKN075 37.4 30.2 75% 31 29.78 0.0
05 20:55 NW 9 10.00 A Few Clouds FEW075 37.4 30.2 75% 31 29.77 0.0
05 20:35 NW 10 10.00 Fair CLR 37.4 30.2 75% 31 29.77 0.0
05 20:15 N 9 10.00 Fair CLR 39.2 32 75% 34 29.76 0.0
05 19:55 N 8 10.00 Partly Cloudy SCT075 39.2 32 55 39.6 75% 34 29.76 0.0
05 19:35 N 12 10.00 Partly Cloudy SCT075 41 32 70% 35 29.75 0.0
05 19:15 N 14 10.00 Mostly Cloudy BKN075 41 32 70% 34 29.75 0.0
05 18:55 N 12 G 17 10.00 Partly Cloudy SCT075 42.8 32 66% 37 29.74 0.0
05 18:35 N 8 G 17 10.00 Mostly Cloudy BKN075 46.4 32 57% 43 29.74 0.0
05 18:15 W 12 G 24 10.00 A Few Clouds FEW075 53.6 21.2 28% 29.72 0.0
05 17:55 W 14 G 25 10.00 A Few Clouds FEW070 51.8 19.4 28% 29.72 0.0
05 17:35 W 16 G 25 10.00 Fair CLR 53.6 21.2 28% 29.72 0.0
05 17:15 NW 13 G 21 10.00 Fair CLR 53.6 23 30% 29.71 0.0
05 16:55 NW 16 G 24 10.00 Fair CLR 53.6 21.2 28% 29.71 0.0
05 16:35 W 17 G 26 10.00 A Few Clouds FEW070 53.6 21.2 28% 29.71 0.0
05 16:15 W 16 G 24 10.00 Partly Cloudy SCT070 53.6 21.2 28% 29.7 0.0
05 15:55 W 9 G 20 10.00 Partly Cloudy SCT070 53.6 23 30% 29.7 0.0
05 15:35 W 15 G 24 10.00 Partly Cloudy SCT070 SCT080 51.8 21.2 30% 29.69 0.0
05 15:15 W 17 G 26 10.00 Mostly Cloudy BKN060 53.6 24.8 33% 29.69 0.0
05 14:55 W 13 G 26 10.00 Mostly Cloudy BKN060 55.4 26.6 33% 29.69 0.0
05 14:35 W 12 G 18 10.00 Mostly Cloudy BKN060 BKN070 53.6 26.6 35% 29.68 0.0
05 14:15 N 12 8.00 Overcast OVC060 46.4 32 57% 42 29.68 0.0
05 13:55 N 13 G 20 10.00 Overcast BKN060 OVC075 46.4 32 49.8 40.3 57% 41 29.68 0.0
05 13:35 N 13 10.00 Overcast OVC060 46.4 32 57% 41 29.68 0.0
05 13:15 N 9 10.00 Overcast OVC065 46.4 32 57% 42 29.68 0.0
05 12:55 N 10 10.00 Overcast OVC060 44.6 32 61% 40 29.68 0.0
05 12:35 N 16 G 25 10.00 Overcast BKN050 OVC060 46.4 32 57% 40 29.67 0.0
05 12:15 W 13 G 17 10.00 Overcast SCT048 OVC060 50 28.4 43% 46 29.67 0.0
05 11:55 W 10 10.00 Overcast BKN050 OVC060 48.2 28.4 46% 44 29.67 0.0
05 11:35 NW 16 G 20 10.00 Overcast FEW037 FEW049 OVC060 48.2 28.4 46% 43 29.67 0.0
05 11:15 W 15 G 23 10.00 Overcast SCT035 SCT041 OVC060 46.4 30.2 53% 41 29.67 0.0
05 10:55 W 9 10.00 Overcast SCT035 SCT050 OVC070 46.4 32 57% 42 29.67 0.0
05 10:35 NW 9 G 16 10.00 Overcast BKN036 BKN043 OVC070 42.8 33.8 71% 38 29.66 0.0
05 10:15 N 13 10.00 Overcast OVC034 42.8 33.8 71% 37 29.64 0.0
05 09:55 NW 9 10.00 Overcast BKN034 OVC039 41 33.8 76% 36 29.64 0.0
05 09:35 NW 9 G 18 10.00 Partly Cloudy SCT034 SCT041 46.4 32 57% 42 29.63 0.0
05 09:15 NW 10 10.00 Fair CLR 44.6 32 61% 40 29.61 0.0
05 08:55 NW 7 G 17 10.00 Fair CLR 44.6 32 61% 41 29.62 0.0
05 08:35 W 8 10.00 Fair CLR 42.8 32 66% 39 29.61 0.0
05 08:15 W 6 10.00 A Few Clouds FEW070 41 32 70% 38 29.61 0.0
05 07:55 W 7 10.00 Fair CLR 41 32 44.2 38.8 70% 37 29.61 0.0
05 07:35 NW 8 10.00 Fair CLR 41 32 70% 36 29.6 0.0
05 07:15 W 7 10.00 Fair CLR 41 32 70% 37 29.59 0.0
05 06:55 W 6 10.00 Partly Cloudy SCT060 39.2 32 75% 36 29.58 0.0
05 06:35 W 6 10.00 Mostly Cloudy BKN060 39.2 32 75% 36 29.57 0.0
05 06:15 W 6 10.00 A Few Clouds FEW060 39.2 32 75% 36 29.56 0.0
05 05:55 W 6 10.00 Fair CLR 39.2 32 75% 36 29.55 0.0
05 05:35 W 6 10.00 Fair CLR 39.2 32 75% 36 29.55 0.0
05 05:15 W 8 10.00 A Few Clouds FEW070 41 32 70% 36 29.54 0.0
05 04:55 W 7 10.00 Mostly Cloudy BKN070 41 33.8 76% 37 29.54 0.0
05 04:35 W 8 10.00 Overcast OVC060 41 33.8 76% 36 29.53 0.0
05 04:15 NW 9 10.00 Overcast OVC060 42.8 33.8 71% 38 29.53 0.0
05 03:55 W 8 10.00 Overcast OVC060 42.8 35.6 76% 39 29.52 0.0
05 03:35 NW 8 10.00 Overcast OVC060 42.8 35.6 76% 39 29.52 0.0
05 03:15 NW 6 10.00 Overcast OVC060 44.6 35.6 71% 42 29.52 0.0
05 02:55 NW 7 10.00 Overcast OVC060 44.6 37.4 76% 41 29.52 0.0
05 02:35 W 6 10.00 Overcast OVC060 44.6 37.4 76% 42 29.52 0.0
05 02:15 NW 6 10.00 Overcast OVC050 44.6 39.2 81% 42 29.52 0.0
05 01:55 W 5 10.00 Overcast OVC050 44.6 39.2 46 43.7 81% 43 29.52 0.0
05 01:35 W 6 10.00 Overcast OVC050 44.6 39.2 81% 42 29.51 0.0
05 01:15 NW 6 10.00 Overcast OVC050 44.6 41 87% 42 29.5 0.0
05 00:55 W 5 10.00 Overcast OVC050 44.6 41 87% 43 29.5 0.0
05 00:35 NW 7 10.00 Overcast BKN048 OVC100 44.6 41 87% 41 29.49 0.0
05 00:15 NW 7 10.00 Overcast FEW047 OVC100 44.6 41 87% 41 29.48 0.0
04 23:55 NW 6 10.00 Overcast BKN100 OVC110 44.6 41 87% 42 29.46 0.0
04 23:35 NW 5 10.00 Overcast BKN080 OVC110 44.6 41 87% 43 29.45 0.0
04 23:15 N 5 10.00 Overcast OVC080 44.6 41 87% 43 29.46 0.0
04 22:55 Vrbl 3 10.00 Light Drizzle BKN080 OVC110 44.6 41 87% 29.46 0.0
04 22:35 NW 5 10.00 Overcast FEW036 SCT070 OVC100 44.6 41 87% 43 29.47 0.0
04 22:15 N 5 10.00 Light Rain BKN060 BKN070 OVC090 44.6 41 87% 43 29.46 0.0
04 21:55 N 7 10.00 Light Rain FEW049 OVC060 44.6 42.8 93% 41 29.46 0.0 0.02
04 21:35 NW 6 10.00 Light Rain FEW049 BKN060 OVC070 44.6 42.8 93% 42 29.46 0.0
04 21:15 N 6 10.00 Light Rain FEW050 BKN060 OVC080 44.6 42.8 93% 42 29.43 0.0
04 20:55 N 10 G 17 7.00 Light Rain FEW050 OVC065 44.6 41 87% 40 29.45 0.0 0.11
04 20:35 NW 10 7.00 Light Rain OVC065 44.6 41 87% 40 29.44 0.0
04 20:15 NW 10 6.00 Light Rain Fog/Mist OVC075 46.4 42.8 87% 42 29.43 0.0
04 19:55 NW 10 10.00 Rain BKN070 OVC085 46.4 42.8 77.4 45.5 87% 42 29.42 0.0 0.05
04 19:35 Vrbl 6 10.00 Light Rain OVC080 46.4 41 82% 44 29.38 0.0
04 19:15 N 8 8.00 Light Rain BKN065 OVC090 46.4 41 82% 43 29.38 0.0
04 18:55 N 18 G 29 10.00 Overcast OVC090 51.8 37.4 58% 29.38 0.0
04 18:35 N 12 G 23 10.00 Overcast BKN090 OVC110 64.4 35.6 34% 29.34 0.0
04 18:15 SW 13 G 25 10.00 Overcast OVC100 73.4 37.4 27% 29.31 0.0
04 17:55 SW 20 G 36 10.00 Mostly Cloudy BKN100 BKN120 73.4 35.6 25% 29.31 0.0
04 17:35 W 18 G 25 10.00 Overcast SCT100 OVC120 73.4 37.4 27% 29.3 0.0
04 17:15 W 15 G 20 10.00 Overcast FEW070 OVC090 73.4 35.6 25% 29.3 0.0
04 16:55 W 20 G 38 10.00 Overcast FEW070 OVC100 73.4 35.6 25% 29.3 0.0
04 16:35 W 15 G 26 10.00 Overcast OVC100 75.2 33.8 22% 76 29.3 0.0
04 16:15 SW 21 G 28 10.00 Mostly Cloudy and Breezy BKN100 75.2 33.8 22% 76 29.29 0.0
04 15:55 SW 18 G 31 10.00 Partly Cloudy SCT110 77 33.8 21% 77 29.3 0.0
04 15:35 SW 21 G 37 10.00 A Few Clouds and Breezy FEW110 77 32 19% 77 29.3 0.0
04 15:15 SW 29 G 36 10.00 A Few Clouds and Windy FEW110 77 30.2 18% 77 29.3 0.0
04 14:55 SW 22 G 35 10.00 A Few Clouds and Breezy FEW110 77 32 19% 77 29.31 0.0
04 14:35 SW 21 G 35 10.00 Fair and Breezy CLR 77 33.8 21% 77 29.32 0.0
04 14:15 SW 23 G 36 10.00 Fair and Breezy CLR 75.2 32 21% 76 29.33 0.0
04 13:55 SW 20 G 29 10.00 Fair CLR 75.2 33.8 74.7 45.7 22% 76 29.33 0.0
04 13:35 SW 25 G 35 10.00 Fair and Breezy CLR 73.4 32 22% 29.35 0.0
04 13:15 SW 26 G 33 10.00 Fair and Windy CLR 73.4 33.8 23% 29.35 0.0
04 12:55 SW 20 G 35 10.00 Fair CLR 73.4 33.8 23% 29.36 0.0
04 12:35 SW 17 G 21 10.00 Fair CLR 73.4 35.6 25% 29.37 0.0
04 12:15 SW 16 G 24 10.00 Fair CLR 71.6 35.6 27% 29.39 0.0
04 11:55 SW 17 G 23 10.00 Fair CLR 69.8 37.4 31% 29.41 0.0
04 11:35 SW 14 G 21 10.00 Fair CLR 68 41 38% 29.42 0.0
04 11:15 S 13 10.00 Fair CLR 64.4 44.6 49% 29.43 0.0
04 10:55 S 10 10.00 Fair CLR 62.6 44.6 52% 29.43 0.0
04 10:35 S 10 10.00 Fair CLR 60.8 42.8 52% 29.44 0.0
04 10:15 S 13 10.00 Fair CLR 59 42.8 55% 29.45 0.0
04 09:55 S 12 10.00 Fair CLR 57.2 44.6 63% 29.46 0.0
04 09:35 S 12 10.00 Fair CLR 55.4 42.8 63% 29.47 0.0
04 09:15 S 10 10.00 Fair CLR 53.6 44.6 72% 29.48 0.0
04 08:55 SW 10 10.00 Fair CLR 50 42.8 76% 46 29.48 0.0
04 08:35 SW 9 G 16 10.00 Fair CLR 48.2 42.8 82% 45 29.49 0.0
04 08:15 SW 12 10.00 Fair CLR 48.2 42.8 82% 44 29.5 0.0
04 07:55 SW 8 10.00 Fair CLR 46.4 42.8 45.7 41.9 87% 43 29.5 0.0
04 07:35 S 8 10.00 Fair CLR 44.6 41 87% 41 29.51 0.0
04 07:15 S 10 10.00 Fair CLR 44.6 41 87% 40 29.5 0.0
04 06:55 SW 9 10.00 Fair CLR 42.8 41 93% 38 29.51 0.0
04 06:35 S 8 10.00 Fair CLR 42.8 39.2 87% 39 29.51 0.0
04 06:15 S 7 10.00 Fair CLR 42.8 39.2 87% 39 29.52 0.0
04 05:55 SW 7 10.00 Fair CLR 42.8 39.2 87% 39 29.53 0.0
04 05:35 S 7 10.00 Fair CLR 42.8 39.2 87% 39 29.53 0.0
04 05:15 S 7 10.00 Fair CLR 44.6 41 87% 41 29.54 0.0
04 04:55 SW 6 10.00 Fair CLR 44.6 41 87% 42 29.54 0.0
04 04:35 SW 8 10.00 Fair CLR 44.6 41 87% 41 29.55 0.0
04 04:15 SW 7 10.00 Fair CLR 44.6 41 87% 41 29.55 0.0
04 03:55 SW 7 10.00 Fair CLR 44.6 41 87% 41 29.56 0.0
04 03:35 SW 8 10.00 Fair CLR 44.6 41 87% 41 29.57 0.0
04 03:15 SW 7 10.00 Fair CLR 44.6 41 87% 41 29.57 0.0
04 02:55 SW 9 10.00 Fair CLR 44.6 41 87% 40 29.58 0.0
04 02:35 SW 8 10.00 Fair CLR 44.6 41 87% 41 29.58 0.0
04 02:15 SW 7 10.00 Fair CLR 44.6 41 87% 41 29.59 0.0
04 01:55 SW 7 10.00 Fair CLR 44.6 41 46 40.6 87% 41 29.59 0.0
04 01:35 SW 6 10.00 Fair CLR 46.4 42.8 87% 44 29.59 0.0
04 01:15 SW 6 10.00 Fair CLR 44.6 42.8 93% 42 29.59 0.0
04 00:55 SW 5 1.25 Fog/Mist SCT055 41 41 100% 38 29.59 0.0
04 00:35 N 1 6.00 Fog/Mist BKN065 41 41 100% 29.6 0.0
04 00:15 SW 5 10.00 Partly Cloudy FEW050 SCT065 42.8 42.8 100% 41 29.6 0.0
03 23:55 W 3 10.00 Partly Cloudy SCT060 44.6 42.8 93% 29.61 0.0
03 23:35 W 3 10.00 Overcast OVC060 46.4 42.8 87% 29.61 0.0
03 23:15 SW 6 7.00 Fog/Mist SCT050 BKN100 44.6 42.8 93% 42 29.61 0.0
03 22:55 S 3 2.50 Fog/Mist BKN110 42.8 42.8 100% 29.61 0.0
03 22:35 SE 3 3.00 Fog/Mist SCT065 BKN110 42.8 42.8 100% 29.61 0.0
03 22:15 SE 3 3.00 Fog/Mist BKN065 BKN095 42.8 41 93% 29.62 0.0
03 21:55 E 2 2.50 Fog/Mist FEW075 BKN095 41 41 100% 29.62 0.0
03 21:35 E 3 5.00 Fog/Mist OVC095 42.8 41 93% 29.63 0.0
03 21:15 SE 5 5.00 Fog/Mist BKN095 BKN110 42.8 41 93% 41 29.62 0.0
03 20:55 SE 3 5.00 Fog/Mist SCT050 SCT065 BKN110 42.8 41 93% 29.62 0.0 0.12
03 20:35 SE 1 4.00 Unknown Precip Fog/Mist SCT050 BKN065 41 41 100% 29.64 0.0
03 20:15 NW 5 4.00 Rain Fog/Mist FEW032 SCT040 BKN048 41 39.2 93% 38 29.65 0.0
03 19:55 NW 13 G 26 4.00 Rain Fog/Mist FEW029 BKN036 OVC045 44.6 42.8 61.5 44.8 93% 39 29.64 0.0 0.08
03 19:35 NW 17 10.00 Light Rain BKN048 OVC055 57.2 42.8 59% 29.61 0.0
03 19:15 SW 6 10.00 Overcast BKN048 OVC055 59 41 51% 29.58 0.0
03 18:55 SW 8 10.00 Overcast SCT050 BKN065 OVC085 59 41 51% 29.58 0.0
03 18:35 SW 5 10.00 Overcast FEW050 SCT065 OVC085 59 42.8 55% 29.59 0.0
03 18:15 W 13 G 17 10.00 Mostly Cloudy SCT048 BKN055 BKN065 59 41 51% 29.6 0.0
03 17:55 SW 17 10.00 Overcast OVC048 59 41 51% 29.61 0.0
03 17:35 W 17 G 24 10.00 Mostly Cloudy BKN046 BKN090 59 41 51% 29.61 0.0
03 17:15 W 13 G 22 10.00 Mostly Cloudy FEW055 BKN080 60.8 39.2 45% 29.61 0.0
03 16:55 W 13 G 20 10.00 Overcast BKN055 OVC080 53.6 41 63% 29.62 0.0
03 16:35 NE 8 10.00 Mostly Cloudy SCT048 BKN055 48.2 39.2 71% 45 29.62 0.0
03 16:15 NE 7 10.00 Overcast SCT043 BKN048 OVC065 50 39.2 67% 48 29.63 0.0
03 15:55 Vrbl 5 G 16 10.00 Overcast FEW039 SCT049 OVC065 57.2 41 55% 29.64 0.0
03 15:35 W 8 10.00 Mostly Cloudy SCT034 BKN049 BKN065 55.4 42.8 63% 29.65 0.0
03 15:15 E 6 10.00 Overcast BKN034 OVC040 50 41 71% 48 29.66 0.0
03 14:55 Vrbl 5 10.00 Mostly Cloudy SCT034 BKN040 BKN100 50 42.8 76% 49 29.67 0.0
03 14:35 SE 6 10.00 Mostly Cloudy FEW065 BKN110 48.2 42.8 82% 46 29.68 0.0
03 14:15 SE 7 10.00 Overcast SCT046 BKN065 OVC120 48.2 42.8 82% 46 29.68 0.0
03 13:55 SE 6 10.00 Overcast BKN038 OVC046 44.6 39.2 45 39.2 81% 42 29.7 0.0
03 13:35 SE 6 10.00 Light Rain BKN037 OVC046 44.6 39.2 81% 42 29.7 0.0
03 13:15 E 2 10.00 Light Rain BKN032 BKN040 OVC050 42.8 37.4 81% 29.71 0.0
03 12:55 Vrbl 1 10.00 Overcast OVC032 41 37.4 87% 29.72 0.0
03 12:35 E 3 10.00 Light Rain BKN034 OVC046 41 35.6 81% 29.73 0.0
03 12:15 E 3 10.00 Light Rain OVC049 39.2 35.6 87% 29.73 0.0
03 11:55 NE 3 10.00 Light Rain OVC049 41 35.6 81% 29.74 0.0
03 11:35 Calm 10.00 Light Rain OVC047 42.8 37.4 81% 29.74 0.0
03 11:15 SW 3 10.00 Overcast OVC049 42.8 35.6 76% 29.74 0.0
03 10:55 E 5 10.00 Light Drizzle BKN049 OVC060 42.8 33.8 71% 41 29.73 0.0
03 10:35 Vrbl 2 10.00 Light Rain OVC047 42.8 33.8 71% 29.73 0.0
03 10:15 SE 3 10.00 Light Rain BKN041 OVC050 42.8 32 66% 29.74 0.0
03 09:55 S 5 10.00 Light Rain BKN050 OVC060 42.8 32 66% 41 29.75 0.0
03 09:35 Calm 10.00 Light Rain BKN050 OVC060 42.8 30.2 61% 29.76 0.0
03 09:15 S 5 10.00 Overcast SCT070 OVC075 42.8 24.8 49% 41 29.77 0.0
03 08:55 S 6 10.00 Overcast OVC080 41 24.8 53% 38 29.77 0.0
03 08:35 S 6 10.00 Overcast BKN080 OVC110 42.8 24.8 49% 40 29.77 0.0
03 08:15 S 6 10.00 Overcast FEW070 OVC100 42.8 24.8 49% 40 29.77 0.0
03 07:55 S 7 10.00 Overcast OVC090 41 23 39.9 32.2 49% 37 29.77 0.0
03 07:35 S 8 10.00 Overcast OVC090 39.2 23 52% 34 29.78 0.0
03 07:15 S 7 10.00 Overcast OVC090 39.2 21.2 48% 35 29.78 0.0
03 06:55 SW 5 10.00 Mostly Cloudy BKN090 BKN120 37.4 21.2 52% 34 29.78 0.0
03 06:35 SW 9 10.00 Mostly Cloudy BKN110 37.4 19.4 48% 31 29.78 0.0
03 06:15 SW 9 10.00 A Few Clouds FEW110 37.4 19.4 48% 31 29.78 0.0
03 05:55 S 10 10.00 A Few Clouds FEW110 37.4 19.4 48% 31 29.79 0.0
03 05:35 S 12 10.00 A Few Clouds FEW120 37.4 19.4 48% 30 29.8 0.0
03 05:15 SW 9 10.00 Fair CLR 35.6 19.4 52% 29 29.81 0.0
03 04:55 S 8 10.00 A Few Clouds FEW110 35.6 19.4 52% 30 29.82 0.0
03 04:35 SW 7 10.00 Fair CLR 35.6 19.4 52% 31 29.83 0.0
03 04:15 SW 8 10.00 Fair CLR 35.6 19.4 52% 30 29.84 0.0
03 03:55 SW 8 10.00 Fair CLR 35.6 19.4 52% 30 29.85 0.0
03 03:35 SW 8 10.00 Fair CLR 35.6 19.4 52% 30 29.85 0.0
03 03:15 SW 7 10.00 Fair CLR 33.8 19.4 56% 28 29.85 0.0
03 02:55 SW 6 10.00 Fair CLR 33.8 19.4 56% 29 29.86 0.0
03 02:35 SW 3 10.00 Fair CLR 32 21.2 64% 29.87 0.0
03 02:15 SW 5 10.00 Fair CLR 32 21.2 64% 28 29.88 0.0
03 01:55 SW 5 10.00 Fair CLR 32 23 44.1 26.8 69% 28 29.88 0.0
03 01:35 SW 6 10.00 Fair CLR 33.8 24.8 70% 29 29.89 0.0
03 01:15 SW 7 10.00 Fair CLR 33.8 24.8 70% 28 29.89 0.0
Date Time (edt) Wind (mph) Vis. (mi.) Weather Sky Cond. Air Dwpt Max. Min. Relative Humidity Wind Chill (°F) Heat Index (°F) altimeter (in) sea level (mb) 1 hr 3 hr 6 hr
6 hour
Temperature (ºF) Pressure Precipitation (in)